Time;durP1;ratioP1;P1;durP2;ratioP2;P2;SDS_P1;SDS_P2;PMS_P1;PMS_P2;Temp;Humidity;BMP_temperature;BMP_pressure;BME280_temperature;BME280_humidity;BME280_pressure;Samples;Min_cycle;Max_cycle;Signal;HPM_P1;HPM_P2
2023/04/11 00:02:14;;;;;;;3.08;1.23;;;13.50;44.40;;;;;;5081433;28;20403;-79
2023/04/11 00:04:40;;;;;;;7.35;1.10;;;13.50;44.40;;;;;;5072481;28;20025;-80
2023/04/11 00:07:08;;;;;;;7.10;1.20;;;13.50;44.50;;;;;;5072913;28;20035;-80
2023/04/11 00:09:33;;;;;;;3.35;1.30;;;13.50;44.60;;;;;;5071588;28;20031;-80
2023/04/11 00:12:00;;;;;;;3.53;1.15;;;13.50;44.60;;;;;;5071698;28;20028;-79
2023/04/11 00:14:27;;;;;;;4.30;1.20;;;13.50;44.70;;;;;;5071426;28;20029;-79
2023/04/11 00:16:56;;;;;;;2.80;1.30;;;13.50;44.70;;;;;;5071606;28;20040;-79
2023/04/11 00:19:22;;;;;;;3.00;1.50;;;13.50;44.70;;;;;;5071461;28;20051;-79
2023/04/11 00:21:49;;;;;;;2.90;1.23;;;13.60;44.80;;;;;;5071651;28;20078;-79
2023/04/11 00:24:15;;;;;;;1.40;1.17;;;13.50;44.70;;;;;;5071633;28;20345;-79
2023/04/11 00:26:41;;;;;;;2.35;0.90;;;13.60;44.90;;;;;;5071230;28;20058;-79
2023/04/11 00:29:06;;;;;;;5.70;1.50;;;13.60;45.00;;;;;;5071696;28;20020;-80
2023/04/11 00:31:32;;;;;;;4.88;1.23;;;13.70;45.20;;;;;;5071843;28;20121;-79
2023/04/11 00:33:57;;;;;;;2.50;1.02;;;13.70;46.20;;;;;;5071178;28;20058;-79
2023/04/11 00:36:23;;;;;;;1.98;1.00;;;13.60;48.10;;;;;;5071295;28;20033;-79
2023/04/11 00:38:49;;;;;;;3.03;1.20;;;13.60;47.10;;;;;;5054671;28;20483;-79
2023/04/11 00:41:14;;;;;;;2.33;1.00;;;13.60;46.50;;;;;;5071655;28;20114;-74
2023/04/11 00:43:40;;;;;;;2.10;1.25;;;13.50;46.90;;;;;;5071445;28;20017;-75
2023/04/11 00:46:08;;;;;;;4.03;1.67;;;13.60;46.90;;;;;;5071266;28;20472;-74
2023/04/11 00:48:34;;;;;;;3.83;1.33;;;13.50;46.80;;;;;;5055212;28;20029;-74
2023/04/11 00:51:00;;;;;;;3.13;1.42;;;13.50;46.30;;;;;;5071239;28;20021;-74
2023/04/11 00:53:31;;;;;;;2.33;1.20;;;13.50;47.70;;;;;;5071247;28;20127;-79
2023/04/11 00:55:58;;;;;;;3.65;1.27;;;13.40;48.70;;;;;;5071245;28;20023;-78
2023/04/11 00:58:23;;;;;;;2.97;1.23;;;13.40;48.60;;;;;;5071687;28;20036;-80
2023/04/11 01:00:50;;;;;;;4.97;1.67;;;13.40;48.60;;;;;;5074773;28;20017;-82
2023/04/11 01:03:16;;;;;;;2.88;1.55;;;13.20;49.60;;;;;;5076052;28;20396;-80
2023/04/11 01:05:44;;;;;;;1.50;1.30;;;13.20;48.70;;;;;;5075447;28;20029;-76
2023/04/11 01:08:11;;;;;;;4.25;1.38;;;13.20;48.70;;;;;;5074504;28;20397;-73
2023/04/11 01:10:40;;;;;;;3.70;1.50;;;13.20;48.60;;;;;;5074363;28;20488;-73
2023/04/11 01:13:06;;;;;;;3.05;1.23;;;13.10;49.80;;;;;;5074529;28;20028;-73
2023/04/11 01:15:31;;;;;;;2.72;1.30;;;13.10;48.50;;;;;;5074360;28;20040;-73
2023/04/11 01:18:00;;;;;;;2.25;1.40;;;13.10;48.90;;;;;;5074399;28;20023;-76
2023/04/11 01:20:27;;;;;;;4.30;1.40;;;13.20;48.30;;;;;;5074346;28;20472;-76
2023/04/11 01:22:55;;;;;;;4.95;1.70;;;13.20;48.50;;;;;;5074321;28;20078;-76
2023/04/11 01:25:21;;;;;;;1.98;1.20;;;13.20;48.10;;;;;;5073977;28;20123;-74
2023/04/11 01:27:47;;;;;;;2.13;1.08;;;13.10;47.70;;;;;;5074281;28;20063;-73
2023/04/11 01:30:13;;;;;;;3.72;1.30;;;13.10;48.10;;;;;;5074356;28;20044;-76
2023/04/11 01:32:39;;;;;;;3.50;1.33;;;13.10;48.30;;;;;;5074073;28;20031;-75
2023/04/11 01:35:07;;;;;;;3.85;1.27;;;13.20;47.60;;;;;;5073881;28;20046;-74
2023/04/11 01:37:33;;;;;;;3.83;1.77;;;13.20;47.20;;;;;;5073305;28;20016;-73
2023/04/11 01:39:59;;;;;;;4.35;1.40;;;13.20;47.20;;;;;;5074020;28;20085;-74
2023/04/11 01:42:26;;;;;;;4.65;1.58;;;13.20;47.20;;;;;;5073588;28;20443;-74
2023/04/11 01:44:53;;;;;;;1.80;1.00;;;13.30;47.30;;;;;;5073744;28;20480;-76
2023/04/11 01:47:18;;;;;;;3.15;1.63;;;13.20;47.50;;;;;;5073829;28;20080;-77
2023/04/11 01:49:44;;;;;;;2.65;1.52;;;13.20;47.60;;;;;;5073685;28;20067;-75
2023/04/11 01:52:09;;;;;;;4.30;1.20;;;13.20;48.20;;;;;;5073576;28;20041;-75
2023/04/11 01:54:35;;;;;;;3.70;1.35;;;13.20;48.30;;;;;;5073413;28;20384;-76
2023/04/11 01:57:01;;;;;;;2.33;1.20;;;13.20;48.30;;;;;;5073917;28;20064;-75
2023/04/11 01:59:26;;;;;;;3.30;1.90;;;13.20;48.30;;;;;;5073459;28;20366;-73
2023/04/11 02:01:52;;;;;;;4.47;1.60;;;13.20;48.90;;;;;;5073540;28;20020;-73
2023/04/11 02:04:17;;;;;;;8.10;1.42;;;13.20;49.10;;;;;;5073430;28;20020;-73
2023/04/11 02:06:43;;;;;;;5.70;1.48;;;13.20;49.30;;;;;;5073153;28;20032;-76
2023/04/11 02:09:09;;;;;;;3.42;1.20;;;13.10;49.90;;;;;;5073383;28;20013;-76
2023/04/11 02:11:34;;;;;;;4.25;1.40;;;13.10;50.10;;;;;;5073562;28;20060;-76
2023/04/11 02:14:01;;;;;;;1.90;1.27;;;12.90;50.90;;;;;;5073221;28;20074;-77
2023/04/11 02:16:28;;;;;;;4.10;1.52;;;12.90;51.30;;;;;;5073248;28;20395;-75
2023/04/11 02:18:55;;;;;;;3.40;1.10;;;13.00;51.80;;;;;;5073084;28;20123;-75
2023/04/11 02:21:21;;;;;;;4.60;1.80;;;12.90;52.40;;;;;;5072617;28;20024;-77
2023/04/11 02:23:46;;;;;;;4.13;1.48;;;12.90;53.20;;;;;;5073134;28;20028;-75
2023/04/11 02:26:12;;;;;;;4.40;1.80;;;13.00;54.60;;;;;;5072563;28;20039;-74
2023/04/11 02:28:38;;;;;;;6.15;1.90;;;12.90;56.00;;;;;;5072973;28;20529;-74
2023/04/11 02:31:03;;;;;;;2.08;1.30;;;12.80;56.90;;;;;;5072754;28;20489;-74
2023/04/11 02:33:29;;;;;;;2.22;1.35;;;12.70;57.60;;;;;;5072644;28;20028;-74
2023/04/11 02:35:55;;;;;;;2.67;1.55;;;12.70;59.30;;;;;;5073001;28;20048;-73
2023/04/11 02:38:20;;;;;;;2.80;1.30;;;12.60;58.60;;;;;;5072848;28;20024;-74
2023/04/11 02:40:46;;;;;;;1.55;1.20;;;12.60;58.90;;;;;;5072670;28;20391;-74
2023/04/11 02:43:12;;;;;;;2.85;1.08;;;12.60;58.80;;;;;;5072739;28;20024;-74
2023/04/11 02:45:38;;;;;;;4.18;1.23;;;12.50;59.20;;;;;;5072522;28;20028;-74
2023/04/11 02:48:04;;;;;;;2.80;1.15;;;12.50;59.70;;;;;;5072819;28;20141;-74
2023/04/11 02:50:30;;;;;;;1.95;0.70;;;12.40;60.50;;;;;;5072302;28;20024;-73
2023/04/11 02:52:56;;;;;;;2.05;0.95;;;12.40;61.30;;;;;;5072559;28;20027;-73
2023/04/11 02:55:22;;;;;;;2.13;1.05;;;12.40;62.30;;;;;;5072451;28;20025;-74
2023/04/11 02:57:49;;;;;;;1.17;1.02;;;12.40;62.50;;;;;;5072145;28;20031;-74
2023/04/11 03:00:15;;;;;;;1.70;1.00;;;12.40;62.90;;;;;;5073646;28;20020;-72
2023/04/11 03:02:42;;;;;;;1.55;0.90;;;12.30;63.80;;;;;;5072222;28;20029;-73
2023/04/11 03:05:08;;;;;;;2.50;0.93;;;12.30;64.70;;;;;;5072089;28;20123;-73
2023/04/11 03:07:33;;;;;;;1.27;0.90;;;12.20;67.00;;;;;;5072233;28;20435;-73
2023/04/11 03:09:59;;;;;;;1.23;1.05;;;12.10;68.20;;;;;;5072369;28;20024;-73
2023/04/11 03:12:25;;;;;;;3.22;1.92;;;12.10;69.80;;;;;;5072355;28;20056;-73
2023/04/11 03:14:51;;;;;;;2.40;1.48;;;11.90;73.80;;;;;;5072174;28;20025;-73
2023/04/11 03:17:17;;;;;;;4.00;1.33;;;11.70;75.10;;;;;;5072090;28;20021;-74
2023/04/11 03:19:43;;;;;;;2.33;1.00;;;11.60;77.50;;;;;;5071723;28;20031;-73
2023/04/11 03:22:10;;;;;;;2.35;1.20;;;11.30;78.00;;;;;;5071791;28;20020;-73
2023/04/11 03:24:38;;;;;;;2.60;1.00;;;11.20;78.00;;;;;;5072203;28;20028;-73
2023/04/11 03:27:04;;;;;;;1.67;0.95;;;11.20;76.60;;;;;;5072182;28;20115;-73
2023/04/11 03:29:29;;;;;;;1.30;0.90;;;11.10;75.80;;;;;;5072035;28;20028;-73
2023/04/11 03:31:55;;;;;;;1.10;0.82;;;11.10;76.30;;;;;;5072005;28;20024;-72
2023/04/11 03:34:22;;;;;;;1.77;0.70;;;11.00;75.40;;;;;;5071657;28;20059;-72
2023/04/11 03:36:48;;;;;;;1.13;0.65;;;11.00;75.60;;;;;;5073331;28;20122;-72
2023/04/11 03:39:13;;;;;;;0.52;0.40;;;10.80;74.50;;;;;;5072215;28;20475;-73
2023/04/11 03:41:39;;;;;;;1.52;0.63;;;10.80;75.00;;;;;;5072095;28;20427;-72
2023/04/11 03:44:04;;;;;;;1.30;0.52;;;10.70;75.80;;;;;;5071877;28;20025;-72
2023/04/11 03:46:31;;;;;;;1.20;0.50;;;10.60;77.10;;;;;;5071519;28;20033;-72
2023/04/11 03:48:57;;;;;;;0.30;0.30;;;10.50;78.40;;;;;;5071870;28;20021;-72
2023/04/11 03:51:22;;;;;;;1.00;0.60;;;10.20;81.20;;;;;;5071813;28;20081;-74
2023/04/11 03:53:48;;;;;;;1.35;0.70;;;10.20;82.30;;;;;;5071385;28;20032;-74
2023/04/11 03:56:13;;;;;;;2.25;0.82;;;10.20;82.00;;;;;;5071799;28;20483;-72
2023/04/11 03:58:39;;;;;;;2.05;0.55;;;10.10;82.20;;;;;;5071621;28;20021;-72
2023/04/11 04:01:05;;;;;;;2.38;0.45;;;10.00;83.10;;;;;;5071638;28;20027;-73
2023/04/11 04:03:30;;;;;;;1.45;0.70;;;10.00;83.60;;;;;;5071330;28;20020;-72
2023/04/11 04:05:56;;;;;;;1.33;0.60;;;10.10;83.10;;;;;;5073079;28;20373;-72
2023/04/11 04:08:22;;;;;;;1.17;0.60;;;10.10;83.40;;;;;;5071799;28;20043;-73
2023/04/11 04:10:47;;;;;;;0.80;0.50;;;10.10;83.20;;;;;;5076382;28;20075;-73
2023/04/11 04:13:13;;;;;;;0.80;0.50;;;10.20;83.00;;;;;;5071948;28;20552;-73
2023/04/11 04:15:38;;;;;;;2.22;0.70;;;10.00;83.90;;;;;;5071726;28;20060;-73
2023/04/11 04:18:04;;;;;;;1.35;0.70;;;10.00;84.20;;;;;;5071299;28;20063;-72
2023/04/11 04:20:29;;;;;;;2.03;0.93;;;10.00;84.40;;;;;;5071508;28;20029;-72
2023/04/11 04:22:55;;;;;;;1.42;0.60;;;10.00;84.70;;;;;;5071558;28;20031;-72
2023/04/11 04:25:20;;;;;;;1.25;0.70;;;9.90;84.60;;;;;;5071385;28;20131;-74
2023/04/11 04:27:46;;;;;;;1.08;0.70;;;9.90;84.30;;;;;;5071321;28;20086;-72
2023/04/11 04:30:18;;;;;;;1.05;0.60;;;9.80;85.00;;;;;;5071314;28;20017;-72
2023/04/11 04:32:44;;;;;;;2.80;0.60;;;9.80;85.00;;;;;;5071242;28;20058;-72
2023/04/11 04:35:12;;;;;;;2.13;0.77;;;9.90;84.90;;;;;;5074360;28;20492;-73
2023/04/11 04:37:44;;;;;;;1.25;0.65;;;10.00;84.40;;;;;;5075257;28;20025;-73
2023/04/11 04:40:12;;;;;;;2.05;1.23;;;10.10;83.70;;;;;;5074863;28;20021;-72
2023/04/11 04:42:40;;;;;;;1.38;0.70;;;10.10;83.50;;;;;;5075063;28;20465;-75
2023/04/11 04:45:06;;;;;;;2.78;0.75;;;10.10;83.20;;;;;;5074575;28;20435;-73
2023/04/11 04:47:35;;;;;;;1.38;0.70;;;10.10;81.60;;;;;;5075285;28;20025;-73
2023/04/11 04:50:00;;;;;;;1.35;0.80;;;10.10;82.50;;;;;;5074706;28;20465;-72
2023/04/11 04:52:27;;;;;;;0.50;0.50;;;10.20;80.40;;;;;;5074783;28;20077;-74
2023/04/11 04:54:57;;;;;;;0.32;0.32;;;10.30;79.90;;;;;;5076124;28;20027;-73
2023/04/11 04:57:24;;;;;;;0.85;0.50;;;10.30;80.10;;;;;;5074279;28;20033;-73
2023/04/11 04:59:51;;;;;;;0.75;0.20;;;10.30;81.50;;;;;;5076085;28;20028;-72
2023/04/11 05:02:17;;;;;;;0.30;0.20;;;10.10;77.90;;;;;;5074797;28;20052;-73
2023/04/11 05:04:43;;;;;;;0.73;0.28;;;9.90;77.50;;;;;;5075492;28;20121;-73
2023/04/11 05:07:12;;;;;;;0.30;0.10;;;9.80;76.40;;;;;;5074583;28;20504;-73
2023/04/11 05:09:38;;;;;;;0.63;0.40;;;9.70;76.10;;;;;;5074256;28;20025;-73
2023/04/11 05:12:03;;;;;;;0.20;0.20;;;9.40;77.20;;;;;;5074455;28;20032;-74
2023/04/11 05:14:29;;;;;;;0.50;0.40;;;9.20;78.80;;;;;;5074799;28;20016;-74
2023/04/11 05:16:55;;;;;;;1.17;0.77;;;9.00;79.20;;;;;;5074631;28;20051;-78
2023/04/11 05:19:20;;;;;;;4.28;1.63;;;8.90;78.70;;;;;;5074574;28;20028;-78
2023/04/11 05:21:46;;;;;;;5.68;0.85;;;8.90;78.40;;;;;;5074591;28;20377;-76
2023/04/11 05:24:11;;;;;;;5.25;2.40;;;8.80;77.80;;;;;;5074417;28;20435;-77
2023/04/11 05:26:37;;;;;;;0.63;0.40;;;8.70;78.50;;;;;;5073999;28;20473;-79
2023/04/11 05:29:03;;;;;;;16.00;7.38;;;8.70;79.10;;;;;;5074600;28;20021;-79
2023/04/11 05:31:28;;;;;;;0.50;0.35;;;8.80;79.10;;;;;;5074316;28;20032;-76
2023/04/11 05:33:55;;;;;;;1.60;0.40;;;8.70;80.80;;;;;;5057693;28;20024;-77
2023/04/11 05:36:21;;;;;;;0.60;0.40;;;8.60;80.40;;;;;;5057837;28;20040;-79
2023/04/11 05:38:46;;;;;;;0.32;0.20;;;8.40;79.80;;;;;;5074045;28;20027;-78
2023/04/11 05:41:12;;;;;;;0.30;0.30;;;8.50;77.80;;;;;;5073751;28;20032;-77
2023/04/11 05:43:38;;;;;;;0.32;0.00;;;8.40;77.00;;;;;;5073693;28;20111;-78
2023/04/11 05:46:07;;;;;;;1.65;0.32;;;8.30;77.10;;;;;;5073578;28;20070;-78
2023/04/11 05:48:33;;;;;;;0.40;0.20;;;8.20;76.70;;;;;;5073763;28;20108;-77
2023/04/11 05:50:59;;;;;;;2.80;0.20;;;8.20;77.10;;;;;;5074057;28;20063;-78
2023/04/11 05:53:25;;;;;;;0.60;0.55;;;8.00;76.70;;;;;;5073520;28;20024;-76
2023/04/11 05:55:51;;;;;;;3.75;1.10;;;8.10;74.00;;;;;;5073611;28;20033;-77
2023/04/11 05:58:17;;;;;;;2.47;0.60;;;8.00;72.40;;;;;;5073197;28;20124;-78
2023/04/11 06:00:44;;;;;;;4.07;0.90;;;7.90;71.80;;;;;;5073701;28;20047;-77
2023/04/11 06:03:10;;;;;;;2.92;0.70;;;7.50;73.80;;;;;;5073948;28;20021;-78
2023/04/11 06:05:36;;;;;;;4.22;0.80;;;7.40;73.10;;;;;;5056881;28;20036;-77
2023/04/11 06:08:04;;;;;;;5.55;1.05;;;7.50;72.00;;;;;;5074413;28;20029;-77
2023/04/11 06:10:30;;;;;;;5.13;1.00;;;7.40;72.00;;;;;;5074367;28;20059;-76
2023/04/11 06:12:56;;;;;;;4.72;0.90;;;7.20;72.60;;;;;;5078902;28;20357;-78
2023/04/11 06:15:23;;;;;;;27.77;2.95;;;7.10;72.90;;;;;;5074775;28;20051;-78
2023/04/11 06:17:49;;;;;;;4.80;1.20;;;7.20;78.80;;;;;;5074607;28;20108;-86
2023/04/11 06:20:15;;;;;;;2.17;0.55;;;7.60;76.10;;;;;;5075910;28;20020;-84
2023/04/11 06:22:41;;;;;;;8.13;1.88;;;7.70;74.30;;;;;;5073139;28;20070;-75
2023/04/11 06:25:07;;;;;;;5.82;1.30;;;8.00;72.70;;;;;;5073972;28;20086;-75
2023/04/11 06:27:33;;;;;;;3.63;0.85;;;8.20;71.20;;;;;;5074093;28;20021;-75
2023/04/11 06:29:59;;;;;;;2.50;0.70;;;8.10;70.50;;;;;;5073887;28;20541;-76
2023/04/11 06:32:24;;;;;;;2.92;0.80;;;8.00;69.90;;;;;;5073825;28;20036;-75
2023/04/11 06:34:50;;;;;;;2.95;1.15;;;8.00;70.30;;;;;;5072504;28;20131;-75
2023/04/11 06:37:16;;;;;;;8.68;1.30;;;8.20;70.20;;;;;;5072470;28;20469;-75
2023/04/11 06:39:42;;;;;;;5.60;2.92;;;8.50;69.70;;;;;;5073329;28;20036;-75
2023/04/11 06:42:07;;;;;;;4.38;1.05;;;8.50;69.80;;;;;;5073906;28;20370;-75
2023/04/11 06:44:33;;;;;;;3.95;1.10;;;8.30;70.70;;;;;;5073735;28;20027;-76
2023/04/11 06:46:59;;;;;;;7.22;1.10;;;8.40;70.30;;;;;;5073815;28;20119;-75
2023/04/11 06:49:27;;;;;;;5.22;0.77;;;8.10;71.10;;;;;;5073682;28;20025;-75
2023/04/11 06:51:53;;;;;;;3.60;0.82;;;8.20;69.60;;;;;;5073545;28;20081;-75
2023/04/11 06:54:19;;;;;;;4.13;0.90;;;8.20;70.40;;;;;;5073497;28;20525;-74
2023/04/11 06:56:46;;;;;;;5.75;2.63;;;8.20;70.70;;;;;;5073063;28;20025;-76
2023/04/11 06:59:12;;;;;;;3.25;1.08;;;8.20;70.20;;;;;;5073323;28;20024;-75
2023/04/11 07:01:38;;;;;;;4.65;1.30;;;8.40;70.10;;;;;;5073429;28;20017;-75
2023/04/11 07:04:05;;;;;;;2.10;0.85;;;8.40;70.10;;;;;;5073502;28;20020;-74
2023/04/11 07:06:32;;;;;;;4.93;1.10;;;8.30;70.10;;;;;;5073241;28;20033;-74
2023/04/11 07:09:00;;;;;;;4.75;1.13;;;8.50;69.00;;;;;;5073351;28;20021;-74
2023/04/11 07:11:26;;;;;;;7.65;1.10;;;8.70;67.20;;;;;;5073374;28;20023;-74
2023/04/11 07:13:51;;;;;;;7.82;1.13;;;8.60;67.80;;;;;;5073294;28;20024;-75
2023/04/11 07:16:17;;;;;;;3.38;0.90;;;8.80;67.50;;;;;;5073302;28;20052;-74
2023/04/11 07:18:43;;;;;;;2.10;0.98;;;8.90;67.10;;;;;;5072897;28;20055;-77
2023/04/11 07:21:12;;;;;;;4.28;1.10;;;9.00;67.20;;;;;;5072726;28;20030;-74
2023/04/11 07:23:39;;;;;;;7.68;1.17;;;9.20;66.10;;;;;;5072953;28;20020;-75
2023/04/11 07:26:05;;;;;;;8.95;3.05;;;9.20;65.60;;;;;;5073033;28;20461;-74
2023/04/11 07:28:31;;;;;;;4.18;1.33;;;9.40;64.20;;;;;;5073192;28;20028;-75
2023/04/11 07:30:57;;;;;;;5.97;1.40;;;9.10;65.20;;;;;;5077875;28;20415;-74
2023/04/11 07:33:22;;;;;;;6.32;1.30;;;8.90;65.10;;;;;;5071821;28;20469;-74
2023/04/11 07:35:48;;;;;;;2.65;1.15;;;8.80;67.00;;;;;;5072881;28;20052;-74
2023/04/11 07:38:28;;;;;;;5.43;2.25;;;8.90;66.40;;;;;;5072831;28;20052;-74
2023/04/11 07:40:55;;;;;;;8.02;3.40;;;9.00;67.00;;;;;;5072796;28;20027;-75
2023/04/11 07:43:21;;;;;;;3.75;0.90;;;9.00;66.70;;;;;;5072943;28;20017;-75
2023/04/11 07:45:46;;;;;;;9.02;1.90;;;8.90;66.80;;;;;;5072863;28;20077;-75
2023/04/11 07:48:12;;;;;;;8.68;1.48;;;8.60;68.50;;;;;;5072582;28;20020;-75
2023/04/11 07:50:37;;;;;;;6.70;1.13;;;8.50;69.90;;;;;;5072598;28;20600;-77
2023/04/11 07:53:03;;;;;;;7.32;1.00;;;8.60;69.10;;;;;;5072394;28;20078;-75
2023/04/11 07:55:28;;;;;;;5.32;1.52;;;8.40;69.60;;;;;;5071750;28;20111;-75
2023/04/11 07:57:54;;;;;;;6.22;1.23;;;8.40;70.00;;;;;;5072910;28;20025;-77
2023/04/11 08:00:21;;;;;;;5.22;1.38;;;8.40;70.40;;;;;;5072787;28;20017;-75
2023/04/11 08:02:47;;;;;;;7.53;1.40;;;8.40;69.70;;;;;;5073131;28;20087;-75
2023/04/11 08:05:13;;;;;;;4.00;1.08;;;8.50;69.90;;;;;;5071257;28;20473;-74
2023/04/11 08:07:38;;;;;;;1.77;0.80;;;8.70;69.60;;;;;;5073313;28;20032;-75
2023/04/11 08:10:06;;;;;;;3.40;0.90;;;8.70;69.10;;;;;;5076458;28;20052;-75
2023/04/11 08:12:31;;;;;;;6.75;1.50;;;8.70;70.60;;;;;;5076990;28;20470;-75
2023/04/11 08:14:57;;;;;;;6.50;0.95;;;8.70;69.70;;;;;;5076757;28;20017;-75
2023/04/11 08:17:24;;;;;;;4.57;1.20;;;8.80;70.00;;;;;;5076697;28;20036;-75
2023/04/11 08:19:50;;;;;;;4.80;0.82;;;9.00;70.00;;;;;;5076811;28;20021;-75
2023/04/11 08:22:16;;;;;;;3.90;1.00;;;9.00;69.50;;;;;;5076533;28;20107;-75
2023/04/11 08:24:42;;;;;;;4.15;0.85;;;8.90;71.80;;;;;;5076667;28;20082;-75
2023/04/11 08:27:08;;;;;;;2.92;0.88;;;9.00;71.20;;;;;;5076595;28;20036;-75
2023/04/11 08:29:33;;;;;;;6.43;1.42;;;9.20;69.50;;;;;;5076730;28;20081;-75
2023/04/11 08:31:59;;;;;;;3.00;1.10;;;9.00;69.40;;;;;;5076260;28;20477;-76
2023/04/11 08:34:24;;;;;;;3.05;0.95;;;9.00;71.00;;;;;;5076329;28;20133;-75
2023/04/11 08:36:50;;;;;;;4.05;1.10;;;9.10;69.40;;;;;;5078435;28;20425;-76
2023/04/11 08:39:15;;;;;;;6.45;1.55;;;9.20;68.20;;;;;;5076571;28;20025;-76
2023/04/11 08:41:41;;;;;;;5.60;1.23;;;9.30;68.20;;;;;;5076280;28;20032;-77
2023/04/11 08:44:10;;;;;;;4.88;1.02;;;9.50;67.20;;;;;;5076488;28;20036;-76
2023/04/11 08:46:40;;;;;;;5.22;0.82;;;9.50;66.90;;;;;;5076400;28;20055;-77
2023/04/11 08:49:06;;;;;;;5.40;1.08;;;9.50;65.80;;;;;;5076845;28;20016;-76
2023/04/11 08:51:31;;;;;;;2.28;0.82;;;9.60;66.10;;;;;;5081143;28;20627;-76
2023/04/11 08:54:00;;;;;;;7.45;2.35;;;9.70;64.40;;;;;;5076492;28;20082;-76
2023/04/11 08:56:26;;;;;;;7.82;2.97;;;9.80;63.00;;;;;;5075662;28;20472;-77
2023/04/11 08:58:52;;;;;;;4.85;1.20;;;10.00;63.00;;;;;;5075827;28;20024;-73
2023/04/11 09:01:31;;;;;;;5.53;1.00;;;10.00;62.10;;;;;;5074611;28;20070;-76
2023/04/11 09:03:58;;;;;;;5.07;1.30;;;10.10;60.70;;;;;;5075785;28;20032;-76
2023/04/11 09:06:29;;;;;;;2.60;0.82;;;10.20;61.60;;;;;;5075744;28;20033;-76
2023/04/11 09:08:56;;;;;;;6.57;1.20;;;10.40;60.60;;;;;;5075707;28;20020;-76
2023/04/11 09:11:23;;;;;;;4.30;1.10;;;10.00;61.30;;;;;;5075652;28;20024;-75
2023/04/11 09:14:07;;;;;;;8.27;3.42;;;9.60;63.00;;;;;;5075720;28;20099;-76
2023/04/11 09:16:33;;;;;;;6.82;1.30;;;9.60;61.90;;;;;;5075400;28;20093;-73
2023/04/11 09:18:59;;;;;;;3.92;1.00;;;9.70;63.70;;;;;;5074587;28;20134;-73
2023/04/11 09:21:26;;;;;;;4.13;0.90;;;9.80;64.20;;;;;;5075268;28;20508;-74
2023/04/11 09:23:53;;;;;;;2.78;1.02;;;9.80;64.80;;;;;;5075347;28;20105;-74
2023/04/11 09:26:26;;;;;;;4.13;1.25;;;9.90;62.50;;;;;;5075852;28;20033;-74
2023/04/11 09:28:52;;;;;;;6.35;1.80;;;9.80;62.90;;;;;;5076356;28;20025;-73
2023/04/11 09:31:19;;;;;;;7.40;1.38;;;9.80;62.90;;;;;;5075891;28;20098;-75
2023/04/11 09:33:55;;;;;;;7.43;1.40;;;9.80;62.90;;;;;;5075556;28;20027;-75
2023/04/11 09:36:27;;;;;;;11.65;1.20;;;9.90;62.90;;;;;;5080112;28;20380;-76
2023/04/11 09:38:54;;;;;;;4.97;1.30;;;9.90;63.70;;;;;;5075312;28;20059;-74
2023/04/11 09:41:35;;;;;;;16.00;2.78;;;10.00;61.10;;;;;;5079723;28;20025;-74
2023/04/11 09:44:01;;;;;;;40.75;4.28;;;10.10;59.80;;;;;;5080727;28;20032;-74
2023/04/11 09:46:27;;;;;;;36.70;4.63;;;10.30;60.50;;;;;;5084491;28;20037;-74
2023/04/11 09:48:53;;;;;;;16.00;2.22;;;10.50;58.40;;;;;;5088173;28;20070;-75
2023/04/11 09:51:19;;;;;;;4.78;1.58;;;10.70;57.90;;;;;;5090322;28;20039;-75
2023/04/11 09:53:45;;;;;;;4.13;1.25;;;10.70;55.60;;;;;;5089474;28;20082;-74
2023/04/11 09:56:11;;;;;;;4.53;1.13;;;10.70;55.40;;;;;;5088727;28;20029;-75
2023/04/11 09:58:38;;;;;;;7.72;2.33;;;10.70;54.40;;;;;;5081054;28;20055;-75
2023/04/11 10:01:09;;;;;;;4.53;1.50;;;10.60;53.90;;;;;;5075935;28;20104;-75
2023/04/11 10:03:37;;;;;;;7.97;1.67;;;10.40;56.30;;;;;;5074708;28;20107;-75
2023/04/11 10:06:19;;;;;;;8.52;1.35;;;10.20;56.50;;;;;;5074824;28;20085;-77
2023/04/11 10:08:46;;;;;;;4.63;1.20;;;10.30;55.70;;;;;;5073240;28;20354;-75
2023/04/11 10:11:13;;;;;;;6.88;1.67;;;10.30;56.80;;;;;;5074317;28;20036;-75
2023/04/11 10:13:49;;;;;;;5.13;1.15;;;10.40;54.70;;;;;;5078004;28;20012;-74
2023/04/11 10:16:19;;;;;;;3.42;1.23;;;10.50;53.70;;;;;;5074166;28;20021;-74
2023/04/11 10:18:53;;;;;;;3.42;1.27;;;10.60;53.20;;;;;;5074320;28;20021;-76
2023/04/11 10:21:35;;;;;;;3.70;1.35;;;10.70;53.30;;;;;;5074502;28;20026;-75
2023/04/11 10:24:14;;;;;;;7.13;1.50;;;10.80;53.30;;;;;;5074451;28;20412;-74
2023/04/11 10:26:57;;;;;;;4.90;1.40;;;10.80;52.80;;;;;;5073950;28;20036;-73
2023/04/11 10:29:31;;;;;;;4.20;1.27;;;10.80;50.30;;;;;;5074166;28;20035;-75
2023/04/11 10:32:10;;;;;;;7.05;1.58;;;10.90;50.50;;;;;;5074122;28;20048;-76
2023/04/11 10:34:38;;;;;;;5.90;2.05;;;10.80;51.20;;;;;;5074043;28;20151;-76
2023/04/11 10:37:08;;;;;;;6.53;1.40;;;10.70;52.30;;;;;;5074131;28;20020;-77
2023/04/11 10:39:51;;;;;;;4.35;1.40;;;10.60;52.20;;;;;;5074213;28;20021;-75
2023/04/11 10:42:39;;;;;;;5.85;1.25;;;10.60;51.60;;;;;;5073982;28;20035;-75
2023/04/11 10:45:27;;;;;;;5.85;2.08;;;10.60;52.40;;;;;;5073860;28;20016;-75
2023/04/11 10:47:55;;;;;;;7.10;2.47;;;10.70;51.70;;;;;;5073764;28;20021;-75
2023/04/11 10:50:33;;;;;;;8.05;1.52;;;10.80;51.40;;;;;;5073542;28;20388;-75
2023/04/11 10:53:02;;;;;;;4.57;1.75;;;10.90;51.20;;;;;;5073647;28;20056;-75
2023/04/11 10:55:28;;;;;;;6.80;1.17;;;11.00;51.30;;;;;;5073794;28;20024;-75
2023/04/11 10:58:07;;;;;;;3.30;1.30;;;10.90;51.20;;;;;;5073430;28;20017;-76
2023/04/11 11:00:51;;;;;;;5.70;1.08;;;10.80;50.90;;;;;;5073175;28;20032;-75
2023/04/11 11:03:18;;;;;;;7.78;1.45;;;10.70;50.90;;;;;;5073287;28;20016;-77
2023/04/11 11:05:45;;;;;;;12.02;1.52;;;10.90;49.70;;;;;;5073269;28;20071;-75
2023/04/11 11:08:11;;;;;;;2.95;1.13;;;10.90;51.00;;;;;;5073223;28;20027;-75
2023/04/11 11:10:44;;;;;;;4.57;1.60;;;10.80;52.70;;;;;;5073251;28;20029;-74
2023/04/11 11:13:15;;;;;;;7.45;2.33;;;10.90;51.60;;;;;;5073204;28;20031;-74
2023/04/11 11:15:47;;;;;;;3.72;1.15;;;11.20;50.50;;;;;;5073212;28;20020;-78
2023/04/11 11:18:14;;;;;;;6.25;1.25;;;11.20;50.10;;;;;;5072013;28;20024;-76
2023/04/11 11:20:40;;;;;;;6.75;1.55;;;11.40;48.10;;;;;;5073029;28;20020;-76
2023/04/11 11:23:10;;;;;;;11.13;3.35;;;11.30;48.00;;;;;;5073091;28;20027;-75
2023/04/11 11:25:36;;;;;;;6.97;1.73;;;11.10;47.30;;;;;;5073022;28;20021;-76
2023/04/11 11:28:02;;;;;;;7.03;1.92;;;11.00;48.60;;;;;;5072963;28;20042;-75
2023/04/11 11:30:28;;;;;;;4.68;1.30;;;11.20;47.90;;;;;;5073162;28;20123;-74
2023/04/11 11:32:55;;;;;;;5.43;1.20;;;11.30;47.60;;;;;;5073097;28;20496;-74
2023/04/11 11:35:22;;;;;;;6.53;1.48;;;11.50;46.50;;;;;;5072922;28;20393;-74
2023/04/11 11:37:51;;;;;;;7.25;2.00;;;11.50;48.00;;;;;;5077891;28;20091;-74
2023/04/11 11:40:20;;;;;;;9.38;3.00;;;11.60;48.10;;;;;;5079242;28;20483;-75
2023/04/11 11:42:50;;;;;;;7.82;1.52;;;11.90;46.40;;;;;;5076191;28;20044;-75
2023/04/11 11:45:18;;;;;;;5.82;1.23;;;11.60;45.80;;;;;;5074841;28;20025;-74
2023/04/11 11:47:45;;;;;;;5.13;1.38;;;11.70;46.60;;;;;;5072848;28;20081;-74
2023/04/11 11:50:22;;;;;;;7.93;2.35;;;12.10;46.20;;;;;;5072721;28;20029;-74
2023/04/11 11:52:47;;;;;;;3.22;1.00;;;12.20;44.50;;;;;;5072752;28;20023;-75
2023/04/11 11:55:21;;;;;;;5.68;1.40;;;12.00;43.00;;;;;;5072828;28;20376;-75
2023/04/11 11:57:47;;;;;;;6.28;1.10;;;11.60;44.20;;;;;;5072957;28;20021;-75
2023/04/11 12:00:14;;;;;;;5.22;1.00;;;11.90;44.50;;;;;;5072732;28;20024;-75
2023/04/11 12:02:43;;;;;;;8.38;1.85;;;12.20;42.80;;;;;;5072785;28;20020;-75
2023/04/11 12:05:10;;;;;;;4.82;1.02;;;12.70;42.80;;;;;;5072848;28;20460;-77
2023/04/11 12:07:37;;;;;;;5.22;1.48;;;13.00;42.40;;;;;;5072768;28;20086;-77
2023/04/11 12:10:10;;;;;;;3.50;0.70;;;13.10;38.90;;;;;;5072556;28;20479;-77
2023/04/11 12:12:37;;;;;;;4.20;1.13;;;13.10;38.60;;;;;;5072625;28;20036;-78
2023/04/11 12:15:18;;;;;;;6.45;1.20;;;13.20;39.20;;;;;;5072647;28;20388;-74
2023/04/11 12:17:51;;;;;;;5.22;1.10;;;13.20;38.70;;;;;;5072729;28;20028;-78
2023/04/11 12:20:30;;;;;;;2.83;1.00;;;12.70;39.60;;;;;;5072725;28;20021;-77
2023/04/11 12:22:56;;;;;;;5.57;1.13;;;12.70;40.70;;;;;;5072607;28;20069;-74
2023/04/11 12:25:22;;;;;;;4.47;1.23;;;12.90;40.90;;;;;;5072437;28;20041;-76
2023/04/11 12:27:47;;;;;;;4.45;1.20;;;13.20;40.20;;;;;;5072564;28;20035;-76
2023/04/11 12:30:16;;;;;;;3.45;0.88;;;13.60;39.60;;;;;;5072453;28;20384;-76
2023/04/11 12:32:42;;;;;;;3.53;1.20;;;14.10;38.60;;;;;;5072689;28;20028;-74
2023/04/11 12:35:09;;;;;;;2.83;1.00;;;14.20;38.00;;;;;;5072948;28;20088;-74
2023/04/11 12:37:35;;;;;;;4.47;1.05;;;14.20;38.00;;;;;;5079063;28;20035;-75
2023/04/11 12:40:05;;;;;;;4.13;1.00;;;14.40;35.90;;;;;;5078370;28;20021;-75
2023/04/11 12:42:31;;;;;;;4.70;1.02;;;14.60;35.70;;;;;;5072742;28;20469;-74
2023/04/11 12:44:57;;;;;;;3.50;1.20;;;14.30;36.10;;;;;;5072097;28;20020;-75
2023/04/11 12:47:22;;;;;;;3.05;1.05;;;14.40;35.80;;;;;;5072137;28;20025;-75
2023/04/11 12:49:48;;;;;;;4.40;1.00;;;14.00;37.00;;;;;;5072357;28;20016;-75
2023/04/11 12:52:13;;;;;;;6.15;0.80;;;14.30;36.80;;;;;;5072203;28;20051;-75